Time;durP1;ratioP1;P1;durP2;ratioP2;P2;SDS_P1;SDS_P2;PMS_P1;PMS_P2;Temp;Humidity;BMP_temperature;BMP_pressure;BME280_temperature;BME280_humidity;BME280_pressure;Samples;Min_cycle;Max_cycle;Signal;HPM_P1;HPM_P2
2023/10/25 00:01:09;;;;;;;43.13;21.23;;;;;;;13.11;100.00;98771.78;5116736;28;20073;-82
2023/10/25 00:03:36;;;;;;;39.88;21.42;;;;;;;13.09;100.00;98779.41;5098004;28;20060;-84
2023/10/25 00:06:02;;;;;;;36.55;21.15;;;;;;;13.06;100.00;98780.47;5131402;27;20031;-83
2023/10/25 00:08:38;;;;;;;37.50;21.33;;;;;;;13.00;100.00;98779.81;5136959;27;20043;-83
2023/10/25 00:11:11;;;;;;;38.72;21.23;;;;;;;13.04;100.00;98786.78;5136590;27;20064;-81
2023/10/25 00:13:37;;;;;;;40.70;21.35;;;;;;;13.00;100.00;98782.66;5136677;27;20102;-81
2023/10/25 00:16:03;;;;;;;37.67;21.85;;;;;;;12.98;100.00;98776.72;5133811;27;20067;-83
2023/10/25 00:18:29;;;;;;;36.45;20.83;;;;;;;13.02;100.00;98788.63;5117922;27;20038;-83
2023/10/25 00:20:56;;;;;;;42.15;21.48;;;;;;;13.00;100.00;98786.31;5118609;27;20031;-84
2023/10/25 00:23:22;;;;;;;40.55;21.45;;;;;;;12.98;100.00;98788.97;5125624;27;20092;-82
2023/10/25 00:25:50;;;;;;;36.40;22.33;;;;;;;12.93;100.00;98792.69;5115501;28;20101;-85
2023/10/25 00:28:16;;;;;;;34.95;20.55;;;;;;;12.98;100.00;98793.94;5097888;28;20407;-82
2023/10/25 00:30:44;;;;;;;38.10;20.77;;;;;;;12.95;100.00;98790.03;5081170;28;20038;-83
2023/10/25 00:33:11;;;;;;;37.92;20.00;;;;;;;12.96;100.00;98793.69;5097332;28;20074;-82
2023/10/25 00:35:37;;;;;;;39.97;20.92;;;;;;;12.91;100.00;98788.81;5097658;28;20019;-82
2023/10/25 00:38:04;;;;;;;34.17;19.85;;;;;;;12.87;100.00;98792.00;5076787;28;20031;-82
2023/10/25 00:40:30;;;;;;;33.22;19.20;;;;;;;12.82;100.00;98784.28;5076976;28;20043;-83
2023/10/25 00:43:20;;;;;;;34.47;18.92;;;;;;;12.79;100.00;98790.34;5115290;28;20385;-82
2023/10/25 00:46:11;;;;;;;30.75;17.50;;;;;;;12.78;100.00;98786.69;5096537;28;20020;-82
2023/10/25 00:48:39;;;;;;;32.35;18.52;;;;;;;12.79;100.00;98784.59;5080242;28;20054;-83
2023/10/25 00:51:10;;;;;;;28.50;17.65;;;;;;;12.79;100.00;98790.34;5115095;28;20028;-86
2023/10/25 00:53:56;;;;;;;24.67;16.15;;;;;;;12.75;100.00;98782.03;5095935;28;20454;-85
2023/10/25 00:56:24;;;;;;;25.00;15.65;;;;;;;12.74;100.00;98783.38;5114822;28;20446;-86
2023/10/25 00:59:11;;;;;;;25.45;15.70;;;;;;;12.74;100.00;98782.59;5115393;28;20063;-85
2023/10/25 01:01:38;;;;;;;26.95;15.27;;;;;;;12.69;100.00;98778.50;5076000;28;20393;-84
2023/10/25 01:04:04;;;;;;;23.35;15.70;;;;;;;12.74;100.00;98779.72;5115437;28;20031;-84
2023/10/25 01:06:32;;;;;;;28.77;16.80;;;;;;;12.75;100.00;98784.91;5096505;28;20107;-82
2023/10/25 01:08:57;;;;;;;24.95;17.98;;;;;;;12.76;100.00;98785.69;5096355;28;20172;-83
2023/10/25 01:11:23;;;;;;;24.42;15.38;;;;;;;12.72;100.00;98780.25;5097565;28;20480;-83
2023/10/25 01:13:50;;;;;;;22.77;15.02;;;;;;;12.70;100.00;98785.78;5080452;28;20054;-81
2023/10/25 01:16:16;;;;;;;23.55;15.43;;;;;;;12.69;100.00;98779.28;5092608;28;20044;-83
2023/10/25 01:18:43;;;;;;;26.25;15.55;;;;;;;12.69;100.00;98779.28;5097873;28;20020;-82
2023/10/25 01:21:09;;;;;;;28.85;16.13;;;;;;;12.68;100.00;98777.72;5115005;28;20064;-82
2023/10/25 01:23:36;;;;;;;29.23;17.02;;;;;;;12.67;100.00;98775.41;5079064;28;20131;-83
2023/10/25 01:26:03;;;;;;;27.33;16.80;;;;;;;12.69;100.00;98773.56;5079576;28;20107;-81
2023/10/25 01:28:28;;;;;;;28.08;17.73;;;;;;;12.66;100.00;98760.28;5112010;28;20354;-83
2023/10/25 01:30:55;;;;;;;34.88;18.60;;;;;;;12.72;100.00;98765.16;5095924;28;20020;-82
2023/10/25 01:33:20;;;;;;;29.23;17.52;;;;;;;12.60;100.00;98742.41;5111751;28;20555;-84
2023/10/25 01:35:47;;;;;;;31.15;18.08;;;;;;;12.71;100.00;98758.66;5114772;28;20066;-83
2023/10/25 01:38:12;;;;;;;30.92;18.98;;;;;;;12.73;100.00;98763.84;5114921;28;20066;-83
2023/10/25 01:40:38;;;;;;;38.53;19.73;;;;;;;12.73;100.00;98764.63;5113659;28;20063;-83
2023/10/25 01:43:05;;;;;;;33.40;18.10;;;;;;;12.74;100.00;98768.28;5114563;28;20036;-82
2023/10/25 01:45:32;;;;;;;37.63;18.42;;;;;;;12.73;100.00;98769.56;5114696;28;20118;-82
2023/10/25 01:47:58;;;;;;;39.00;19.50;;;;;;;12.63;100.00;98758.53;5120733;28;20024;-84
2023/10/25 01:50:23;;;;;;;44.22;21.90;;;;;;;12.73;100.00;98786.78;5134739;28;20038;-82
2023/10/25 01:52:50;;;;;;;41.33;21.15;;;;;;;12.64;100.00;98765.81;5094788;28;20404;-82
2023/10/25 01:55:15;;;;;;;38.60;20.05;;;;;;;12.74;100.00;98782.59;5114563;28;20024;-82
2023/10/25 01:57:56;;;;;;;39.28;21.25;;;;;;;12.75;100.00;98778.41;5117245;28;20043;-84
2023/10/25 02:00:21;;;;;;;39.13;20.63;;;;;;;12.77;100.00;98778.63;5114995;28;20032;-85
2023/10/25 02:02:48;;;;;;;41.33;20.92;;;;;;;12.78;100.00;98791.66;5100294;28;20035;-84
2023/10/25 02:05:13;;;;;;;43.15;21.15;;;;;;;12.74;100.00;98776.88;5119204;28;20035;-83
2023/10/25 02:07:39;;;;;;;43.83;21.77;;;;;;;12.75;100.00;98775.56;5118781;28;20023;-83
2023/10/25 02:10:06;;;;;;;42.15;21.10;;;;;;;12.77;100.00;98792.97;5118546;28;20031;-82
2023/10/25 02:12:32;;;;;;;38.63;21.25;;;;;;;12.78;100.00;98795.28;5117297;28;20027;-82
2023/10/25 02:14:58;;;;;;;44.20;23.75;;;;;;;12.77;100.00;98788.00;5116857;28;20020;-81
2023/10/25 02:17:25;;;;;;;41.45;23.33;;;;;;;12.74;100.00;98791.97;5117541;28;20381;-80
2023/10/25 02:19:51;;;;;;;49.88;23.85;;;;;;;12.73;100.00;98801.88;5118244;28;20027;-83
2023/10/25 02:22:17;;;;;;;48.47;23.98;;;;;;;12.72;100.00;98811.03;5099870;28;20161;-83
2023/10/25 02:24:44;;;;;;;46.00;23.50;;;;;;;12.70;100.00;98800.88;5117013;28;20016;-81
2023/10/25 02:27:10;;;;;;;50.47;22.83;;;;;;;12.69;100.00;98796.47;5116084;28;20038;-83
2023/10/25 02:29:35;;;;;;;53.35;24.83;;;;;;;12.70;100.00;98802.97;5099338;28;20390;-82
2023/10/25 02:32:01;;;;;;;44.75;23.30;;;;;;;12.64;100.00;98797.34;5099506;28;20069;-83
2023/10/25 02:34:28;;;;;;;47.05;21.80;;;;;;;12.73;100.00;98806.84;5116790;28;20472;-84
2023/10/25 02:36:55;;;;;;;53.53;23.63;;;;;;;12.74;100.00;98814.13;5117708;28;20104;-84
2023/10/25 02:39:23;;;;;;;53.88;23.95;;;;;;;12.74;100.00;98806.31;5117978;28;20019;-83
2023/10/25 02:41:50;;;;;;;44.58;23.38;;;;;;;12.78;100.00;98814.59;5129151;28;20019;-83
2023/10/25 02:44:16;;;;;;;48.58;23.52;;;;;;;12.79;100.00;98816.91;5107306;28;20020;-82
2023/10/25 02:46:57;;;;;;;45.38;23.02;;;;;;;12.68;100.00;98802.75;5140249;28;20035;-82
2023/10/25 02:49:24;;;;;;;50.90;23.03;;;;;;;12.79;100.00;98816.13;5140330;28;20023;-81
2023/10/25 02:51:51;;;;;;;50.05;24.02;;;;;;;12.79;100.00;98821.88;5147104;27;20160;-82
2023/10/25 02:54:18;;;;;;;57.90;24.90;;;;;;;12.81;100.00;98827.81;5126798;27;20047;-81
2023/10/25 02:56:45;;;;;;;59.85;24.65;;;;;;;12.83;100.00;98825.19;5140264;27;20057;-82
2023/10/25 02:59:11;;;;;;;50.38;25.30;;;;;;;12.82;100.00;98823.63;5121524;27;20022;-81
2023/10/25 03:01:37;;;;;;;51.65;25.52;;;;;;;12.82;100.00;98826.50;5137493;27;20118;-82
2023/10/25 03:04:05;;;;;;;57.53;25.20;;;;;;;12.84;100.00;98824.66;5135586;27;20064;-82
2023/10/25 03:06:31;;;;;;;56.03;26.40;;;;;;;12.85;100.00;98834.03;5137379;27;20033;-81
2023/10/25 03:08:58;;;;;;;55.60;24.65;;;;;;;12.85;100.00;98828.28;5138834;27;20019;-83
2023/10/25 03:11:23;;;;;;;54.92;24.83;;;;;;;12.86;100.00;98826.94;5138355;27;20019;-82
2023/10/25 03:13:49;;;;;;;53.33;24.83;;;;;;;12.89;100.00;98829.53;5138321;27;20034;-84
2023/10/25 03:16:16;;;;;;;56.05;23.65;;;;;;;12.83;100.00;98825.97;5119608;27;20051;-83
2023/10/25 03:18:41;;;;;;;54.05;25.27;;;;;;;12.88;100.00;98835.78;5134854;27;20484;-82
2023/10/25 03:21:07;;;;;;;61.40;24.77;;;;;;;12.74;100.00;98825.59;5138024;27;20027;-82
2023/10/25 03:23:32;;;;;;;62.25;27.10;;;;;;;12.87;100.00;98840.75;5137830;27;20031;-82
2023/10/25 03:26:05;;;;;;;61.72;26.33;;;;;;;12.88;100.00;98836.56;5118448;27;20037;-83
2023/10/25 03:28:32;;;;;;;61.15;26.85;;;;;;;12.88;100.00;98841.53;5137187;27;20479;-82
2023/10/25 03:31:04;;;;;;;54.85;27.27;;;;;;;12.90;100.00;98841.78;5101655;27;20061;-82
2023/10/25 03:33:32;;;;;;;60.00;28.30;;;;;;;12.91;100.00;98846.94;5102753;27;20041;-83
2023/10/25 03:35:58;;;;;;;59.42;27.40;;;;;;;12.90;100.00;98851.13;5137627;27;20110;-82
2023/10/25 03:38:26;;;;;;;53.65;26.50;;;;;;;12.91;100.00;98849.81;5136673;27;20042;-81
2023/10/25 03:41:21;;;;;;;55.00;25.45;;;;;;;12.85;100.00;98843.38;5137204;27;20038;-81
2023/10/25 03:43:46;;;;;;;49.88;24.90;;;;;;;12.95;100.00;98853.13;5116322;27;20030;-80
2023/10/25 03:46:12;;;;;;;49.85;24.95;;;;;;;12.88;100.00;98841.53;5136511;27;20568;-81
2023/10/25 03:48:39;;;;;;;45.85;23.25;;;;;;;12.95;100.00;98846.63;5099277;28;20015;-81
2023/10/25 03:51:06;;;;;;;41.08;22.15;;;;;;;12.95;100.00;98853.13;5094464;28;20028;-80
2023/10/25 03:53:35;;;;;;;43.70;23.85;;;;;;;12.95;100.00;98849.47;5094831;28;20032;-82
2023/10/25 03:56:11;;;;;;;41.30;20.35;;;;;;;12.95;100.00;98843.75;5094371;28;20496;-82
2023/10/25 03:58:38;;;;;;;39.10;21.02;;;;;;;12.94;100.00;98850.81;5096135;28;20103;-82
2023/10/25 04:01:06;;;;;;;42.65;22.48;;;;;;;12.93;100.00;98849.28;5096102;28;20028;-81
2023/10/25 04:03:31;;;;;;;42.80;21.48;;;;;;;12.88;100.00;98842.31;5094647;28;20047;-81
2023/10/25 04:06:00;;;;;;;44.22;20.85;;;;;;;12.90;100.00;98844.63;5095614;28;20028;-82
2023/10/25 04:08:26;;;;;;;38.35;20.92;;;;;;;12.87;100.00;98845.72;5095644;28;20655;-82
2023/10/25 04:10:58;;;;;;;42.67;20.73;;;;;;;12.93;100.00;98843.53;5094165;28;20036;-82
2023/10/25 04:13:28;;;;;;;38.50;19.27;;;;;;;12.92;100.00;98857.09;5094639;28;20089;-83
2023/10/25 04:16:01;;;;;;;41.17;19.83;;;;;;;12.94;100.00;98847.97;5095546;28;20385;-82
2023/10/25 04:18:37;;;;;;;38.42;18.88;;;;;;;12.85;100.00;98834.78;5094897;28;20048;-84
2023/10/25 04:21:09;;;;;;;35.17;18.00;;;;;;;12.92;100.00;98853.44;5096342;28;20032;-82
2023/10/25 04:23:40;;;;;;;34.03;19.08;;;;;;;12.89;100.00;98858.19;5095298;28;20054;-83
2023/10/25 04:26:07;;;;;;;37.83;19.10;;;;;;;12.86;100.00;98847.03;5095052;28;20048;-83
2023/10/25 04:28:47;;;;;;;32.92;15.75;;;;;;;12.86;100.00;98844.16;5096402;28;20024;-83
2023/10/25 04:31:20;;;;;;;32.35;16.65;;;;;;;12.89;100.00;98848.81;5096253;28;20024;-82
2023/10/25 04:33:49;;;;;;;34.60;17.80;;;;;;;12.84;100.00;98843.94;5095531;28;20023;-83
2023/10/25 04:36:17;;;;;;;28.75;17.10;;;;;;;12.90;100.00;98853.25;5096555;28;20050;-86
2023/10/25 04:38:45;;;;;;;29.63;16.27;;;;;;;12.91;100.00;98851.91;5063181;28;20040;-88
2023/10/25 04:41:12;;;;;;;27.67;15.52;;;;;;;12.88;100.00;98856.63;5097763;28;20035;-86
2023/10/25 04:43:39;;;;;;;29.05;15.23;;;;;;;12.85;100.00;98845.50;5094710;28;20032;-86
2023/10/25 04:46:05;;;;;;;30.92;15.27;;;;;;;12.83;100.00;98851.00;5093618;28;20374;-88
2023/10/25 04:48:45;;;;;;;27.02;15.80;;;;;;;12.79;100.00;98856.25;5091849;28;20093;-87
2023/10/25 04:51:13;;;;;;;30.67;16.80;;;;;;;12.75;100.00;98853.69;5095310;28;20453;-86
2023/10/25 04:53:40;;;;;;;30.63;14.70;;;;;;;12.74;100.00;98862.84;5108470;28;20114;-86
2023/10/25 04:56:07;;;;;;;27.52;15.63;;;;;;;12.73;100.00;98853.47;5064122;28;20040;-87
2023/10/25 04:58:32;;;;;;;25.58;15.32;;;;;;;12.70;100.00;98857.44;5080380;28;20106;-86
2023/10/25 05:00:58;;;;;;;27.02;14.15;;;;;;;12.74;100.00;98875.09;5097656;28;20423;-84
2023/10/25 05:03:23;;;;;;;27.08;14.40;;;;;;;12.72;100.00;98874.84;5115315;28;20027;-85
2023/10/25 05:05:49;;;;;;;25.70;14.40;;;;;;;12.72;100.00;98886.31;5115666;28;20035;-83
2023/10/25 05:08:17;;;;;;;28.10;14.38;;;;;;;12.72;100.00;98882.69;5098182;28;20007;-85
2023/10/25 05:10:43;;;;;;;21.73;13.63;;;;;;;12.64;100.00;98868.97;5115858;28;20024;-84
2023/10/25 05:13:21;;;;;;;25.17;13.38;;;;;;;12.74;100.00;98885.78;5097643;28;20059;-82
2023/10/25 05:15:48;;;;;;;22.70;13.73;;;;;;;12.64;100.00;98879.66;5109922;28;20370;-76
2023/10/25 05:18:15;;;;;;;25.13;15.32;;;;;;;12.78;100.00;98900.56;5111284;28;20465;-77
2023/10/25 05:20:47;;;;;;;23.58;13.98;;;;;;;12.77;100.00;98907.63;5122515;27;20031;-77
2023/10/25 05:23:14;;;;;;;25.40;15.23;;;;;;;12.81;100.00;98903.13;5134278;27;20023;-79
2023/10/25 05:25:40;;;;;;;27.40;13.77;;;;;;;12.84;100.00;98912.75;5099217;28;20030;-80
2023/10/25 05:28:06;;;;;;;24.50;14.25;;;;;;;12.79;100.00;98910.72;5091660;28;20039;-79
2023/10/25 05:30:31;;;;;;;25.30;15.63;;;;;;;12.76;100.00;98924.03;5114041;28;20031;-80
2023/10/25 05:33:04;;;;;;;20.63;12.68;;;;;;;12.67;100.00;98925.22;5113488;28;20097;-79
2023/10/25 05:35:31;;;;;;;22.48;12.60;;;;;;;12.60;100.00;98930.78;5079336;28;20040;-81
2023/10/25 05:37:59;;;;;;;23.02;12.45;;;;;;;12.59;100.00;98947.22;5113990;28;20491;-78
2023/10/25 05:40:28;;;;;;;22.17;11.90;;;;;;;12.55;100.00;98946.72;5094999;28;20031;-76
2023/10/25 05:42:59;;;;;;;22.13;13.10;;;;;;;12.51;100.00;98945.47;5075104;28;20028;-78
2023/10/25 05:45:25;;;;;;;20.45;11.88;;;;;;;12.49;100.00;98936.66;5094703;28;20016;-80
2023/10/25 05:47:54;;;;;;;22.58;12.95;;;;;;;12.52;100.00;98944.94;5128501;28;20050;-79
2023/10/25 05:50:21;;;;;;;24.23;13.10;;;;;;;12.51;100.00;98951.19;5134664;28;20025;-81
2023/10/25 05:52:47;;;;;;;25.73;12.98;;;;;;;12.48;100.00;98947.34;5116408;28;20480;-80
2023/10/25 05:55:14;;;;;;;24.58;12.88;;;;;;;12.51;100.00;98954.06;5113563;28;20039;-80
2023/10/25 05:57:43;;;;;;;23.25;12.70;;;;;;;12.48;100.00;98958.81;5115979;28;20126;-81
2023/10/25 06:00:13;;;;;;;17.65;11.35;;;;;;;12.52;100.00;98967.09;5116122;28;20043;-82
2023/10/25 06:02:40;;;;;;;24.85;13.30;;;;;;;12.56;100.00;98971.19;5134975;28;20460;-84
2023/10/25 06:05:24;;;;;;;22.33;13.15;;;;;;;12.56;100.00;98982.66;5099426;28;20071;-80
2023/10/25 06:07:49;;;;;;;24.65;12.82;;;;;;;12.57;100.00;98978.47;5115470;28;20077;-83
2023/10/25 06:10:16;;;;;;;24.25;12.82;;;;;;;12.58;100.00;98980.03;5134347;28;20049;-85
2023/10/25 06:12:42;;;;;;;27.42;13.18;;;;;;;12.48;100.00;98978.84;5134733;28;20122;-83
2023/10/25 06:15:08;;;;;;;26.40;12.57;;;;;;;12.43;100.00;98962.50;5133944;28;20505;-80
2023/10/25 06:17:33;;;;;;;25.63;13.00;;;;;;;12.58;100.00;98985.78;5134149;27;20034;-79
2023/10/25 06:20:05;;;;;;;18.85;11.75;;;;;;;12.58;100.00;98988.63;5133185;28;20180;-81
2023/10/25 06:22:32;;;;;;;18.95;10.77;;;;;;;12.56;100.00;98982.66;5134651;28;20031;-81
2023/10/25 06:25:00;;;;;;;19.73;10.38;;;;;;;12.56;100.00;98979.78;5135593;28;20039;-84
2023/10/25 06:27:26;;;;;;;13.10;9.05;;;;;;;12.58;100.00;98990.72;5117044;28;20035;-82
2023/10/25 06:29:55;;;;;;;12.57;7.45;;;;;;;12.56;100.00;98987.63;5135158;28;20015;-81
2023/10/25 06:32:26;;;;;;;13.57;7.88;;;;;;;12.51;100.00;98974.91;5129512;28;20053;-85
2023/10/25 06:35:06;;;;;;;11.27;6.90;;;;;;;12.50;100.00;98973.38;5133725;28;20088;-84
2023/10/25 06:37:37;;;;;;;7.00;5.20;;;;;;;12.53;100.00;98985.84;5134889;28;20068;-84
2023/10/25 06:40:05;;;;;;;8.57;5.18;;;;;;;12.53;100.00;98991.56;5135511;28;20449;-82
2023/10/25 06:42:33;;;;;;;9.48;6.00;;;;;;;12.51;100.00;98985.59;5137974;27;20027;-82
2023/10/25 06:45:08;;;;;;;8.85;4.85;;;;;;;12.50;100.00;98986.91;5138714;27;20020;-81
2023/10/25 06:47:36;;;;;;;6.65;4.70;;;;;;;12.47;100.00;98979.38;5120681;27;20521;-86
2023/10/25 06:50:05;;;;;;;10.15;5.55;;;;;;;12.46;100.00;98981.47;5138735;27;20071;-84
2023/10/25 06:52:30;;;;;;;7.03;5.55;;;;;;;12.50;100.00;98984.06;5121444;27;20055;-82
2023/10/25 06:54:56;;;;;;;9.93;5.43;;;;;;;12.50;100.00;98984.84;5138727;27;20431;-83
2023/10/25 06:57:24;;;;;;;8.93;4.60;;;;;;;12.51;100.00;98994.97;5120070;27;20405;-82
2023/10/25 06:59:50;;;;;;;9.00;5.57;;;;;;;12.53;100.00;98988.69;5145207;27;20019;-83
2023/10/25 07:02:21;;;;;;;7.10;4.82;;;;;;;12.56;100.00;98987.63;5149312;27;20041;-83
2023/10/25 07:04:51;;;;;;;7.47;4.55;;;;;;;12.58;100.00;98987.84;5148151;27;20023;-82
2023/10/25 07:07:22;;;;;;;6.60;4.95;;;;;;;12.58;100.00;98991.50;5130782;27;20031;-84
2023/10/25 07:09:48;;;;;;;8.80;5.18;;;;;;;12.48;100.00;98973.13;5136180;27;20030;-82
2023/10/25 07:12:14;;;;;;;9.00;5.07;;;;;;;12.58;100.00;98985.78;5149536;27;20052;-81
2023/10/25 07:14:42;;;;;;;7.88;4.22;;;;;;;12.63;100.00;98995.63;5144093;27;20035;-84
2023/10/25 07:17:10;;;;;;;7.60;4.65;;;;;;;12.64;100.00;98995.09;5142017;27;20023;-81
2023/10/25 07:19:35;;;;;;;6.63;4.07;;;;;;;12.62;100.00;98991.97;5142931;27;20463;-82
2023/10/25 07:22:03;;;;;;;6.85;4.55;;;;;;;12.61;100.00;98984.69;5138080;27;20459;-81
2023/10/25 07:24:29;;;;;;;7.68;4.88;;;;;;;12.72;100.00;99005.94;5137465;27;20027;-81
2023/10/25 07:26:56;;;;;;;8.18;4.95;;;;;;;12.69;100.00;99002.06;5137146;27;20425;-81
2023/10/25 07:29:21;;;;;;;8.55;5.43;;;;;;;12.64;100.00;99003.69;5137130;27;20027;-82
2023/10/25 07:31:47;;;;;;;7.15;5.57;;;;;;;12.62;100.00;99003.44;5137632;27;20023;-81
2023/10/25 07:34:27;;;;;;;9.63;5.70;;;;;;;12.59;100.00;99007.38;5133711;27;20105;-81
2023/10/25 07:36:53;;;;;;;7.95;5.07;;;;;;;12.65;100.00;99013.06;5118572;27;20015;-82
2023/10/25 07:39:19;;;;;;;11.27;5.97;;;;;;;12.67;100.00;99016.94;5136982;27;20022;-82
2023/10/25 07:41:46;;;;;;;9.48;5.55;;;;;;;12.68;100.00;99018.47;5118833;27;20479;-81
2023/10/25 07:44:13;;;;;;;8.18;5.65;;;;;;;12.79;100.00;99022.53;5133893;27;20388;-81
2023/10/25 07:46:39;;;;;;;8.43;5.30;;;;;;;12.80;100.00;99026.97;5101062;27;20348;-81
2023/10/25 07:49:07;;;;;;;10.88;5.75;;;;;;;12.84;100.00;99036.03;5135768;27;20018;-81
2023/10/25 07:51:33;;;;;;;8.07;5.45;;;;;;;12.87;100.00;99029.19;5136212;27;20047;-81
2023/10/25 07:53:59;;;;;;;7.45;4.50;;;;;;;12.92;100.00;99028.34;5135319;27;20034;-81
2023/10/25 07:56:34;;;;;;;6.18;4.80;;;;;;;13.03;100.00;99036.81;5136844;27;20019;-81
2023/10/25 07:59:01;;;;;;;7.28;4.72;;;;;;;13.13;100.00;99035.13;5136942;27;20054;-82
2023/10/25 08:01:32;;;;;;;7.65;5.25;;;;;;;13.26;100.00;99028.69;5135471;27;20500;-84
2023/10/25 08:03:58;;;;;;;11.20;5.43;;;;;;;13.37;100.00;99037.91;5119304;27;20033;-81
2023/10/25 08:06:31;;;;;;;9.38;4.05;;;;;;;13.32;100.00;99024.41;5136221;27;20478;-81
2023/10/25 08:08:59;;;;;;;6.18;4.88;;;;;;;13.46;100.00;99026.03;5137133;27;20011;-84
2023/10/25 08:11:26;;;;;;;7.88;4.90;;;;;;;13.53;100.00;99036.16;5118437;27;20026;-84
2023/10/25 08:13:51;;;;;;;13.82;5.65;;;;;;;13.54;100.00;99029.84;5136422;27;20329;-82
2023/10/25 08:16:17;;;;;;;8.25;5.60;;;;;;;13.53;100.00;99033.28;5118378;27;20090;-81
2023/10/25 08:18:42;;;;;;;6.97;5.53;;;;;;;13.49;100.00;99035.66;5136533;27;20459;-83
2023/10/25 08:21:18;;;;;;;8.23;5.10;;;;;;;13.48;100.00;99040.63;5136502;27;20016;-81
2023/10/25 08:23:51;;;;;;;10.98;6.38;;;;;;;13.49;100.00;99042.16;5118992;27;20027;-84
2023/10/25 08:26:21;;;;;;;9.80;5.75;;;;;;;13.44;100.00;99034.41;5128160;27;20209;-83
2023/10/25 08:28:50;;;;;;;7.22;5.57;;;;;;;13.59;100.00;99059.03;5117592;27;20026;-81
2023/10/25 08:31:17;;;;;;;7.68;5.18;;;;;;;13.68;100.00;99050.03;5134778;27;20027;-80
2023/10/25 08:33:48;;;;;;;6.55;5.05;;;;;;;13.76;100.00;99056.66;5135364;27;20104;-82
2023/10/25 08:36:14;;;;;;;7.10;5.30;;;;;;;13.81;100.00;99050.84;5116840;27;20502;-82
2023/10/25 08:38:41;;;;;;;7.05;5.63;;;;;;;13.89;100.00;99040.25;5100175;27;20023;-83
2023/10/25 08:41:21;;;;;;;8.20;4.88;;;;;;;13.90;100.00;99035.28;5136018;27;20019;-81
2023/10/25 08:43:47;;;;;;;7.07;5.07;;;;;;;14.01;100.00;99035.13;5117224;27;20023;-84
2023/10/25 08:46:23;;;;;;;7.82;5.70;;;;;;;14.11;100.00;99041.22;5135150;27;20486;-81
2023/10/25 08:48:52;;;;;;;7.88;4.38;;;;;;;14.22;100.00;99038.94;5135659;27;20019;-81
2023/10/25 08:51:20;;;;;;;5.63;4.30;;;;;;;14.32;100.00;99033.53;5116389;27;20455;-84
2023/10/25 08:53:47;;;;;;;6.07;4.22;;;;;;;14.51;100.00;99039.19;5135543;27;20011;-81
2023/10/25 08:56:14;;;;;;;4.88;4.15;;;;;;;14.71;100.00;99050.06;5135428;27;20030;-85
2023/10/25 08:58:40;;;;;;;5.38;3.97;;;;;;;14.84;100.00;99047.19;5135326;27;20464;-81
2023/10/25 09:01:06;;;;;;;4.60;3.58;;;;;;;14.94;100.00;99047.50;5116882;27;20023;-81
2023/10/25 09:03:31;;;;;;;4.80;3.65;;;;;;;15.05;100.00;99048.06;5135537;27;20026;-81
2023/10/25 09:05:59;;;;;;;7.72;3.92;;;;;;;15.30;100.00;99050.69;5134602;27;20030;-81
2023/10/25 09:08:27;;;;;;;4.40;3.60;;;;;;;15.44;100.00;99049.31;5131306;27;20031;-82
2023/10/25 09:11:05;;;;;;;3.88;3.30;;;;;;;15.42;100.00;99040.47;5135482;27;20027;-80
2023/10/25 09:13:45;;;;;;;4.68;3.08;;;;;;;15.35;100.00;99046.91;5116945;28;20541;-80
2023/10/25 09:16:14;;;;;;;4.43;3.00;;;;;;;15.35;100.00;99055.56;5118744;27;20125;-82
2023/10/25 09:18:55;;;;;;;3.55;2.75;;;;;;;15.29;100.00;99055.66;5130817;27;20138;-82
2023/10/25 09:21:28;;;;;;;3.35;2.40;;;;;;;15.24;100.00;99050.81;5116362;27;20031;-81
2023/10/25 09:23:55;;;;;;;3.72;2.75;;;;;;;15.22;100.00;99045.59;5116859;28;20028;-82
2023/10/25 09:26:42;;;;;;;3.00;2.72;;;;;;;15.27;100.00;99055.44;5119033;27;20067;-82
2023/10/25 09:29:12;;;;;;;2.90;2.42;;;;;;;15.30;100.00;99054.34;5112203;28;20103;-81
2023/10/25 09:31:40;;;;;;;3.28;2.40;;;;;;;15.34;100.00;99059.75;5133842;28;20426;-82
2023/10/25 09:34:10;;;;;;;2.80;2.47;;;;;;;15.38;100.00;99057.31;5115037;28;20035;-82
2023/10/25 09:36:51;;;;;;;4.50;3.00;;;;;;;15.35;100.00;99055.56;5135377;28;20050;-83
2023/10/25 09:39:17;;;;;;;2.90;2.40;;;;;;;15.42;100.00;99069.25;5116852;28;20373;-83
2023/10/25 09:41:50;;;;;;;3.05;2.58;;;;;;;15.33;100.00;99058.97;5135235;28;20023;-82
2023/10/25 09:44:25;;;;;;;2.80;2.60;;;;;;;15.32;100.00;99068.94;5099174;28;20047;-83
2023/10/25 09:47:04;;;;;;;4.25;2.83;;;;;;;15.34;100.00;99071.25;5099829;28;20043;-82
2023/10/25 09:49:49;;;;;;;4.93;3.35;;;;;;;15.34;100.00;99065.50;5120312;28;20075;-82
2023/10/25 09:52:26;;;;;;;4.25;2.63;;;;;;;15.32;100.00;99066.06;5115671;28;20047;-81
2023/10/25 09:55:03;;;;;;;4.70;2.97;;;;;;;15.33;100.00;99063.97;5120703;28;20032;-82
2023/10/25 09:57:46;;;;;;;4.20;2.88;;;;;;;15.31;100.00;99066.63;5119361;28;20473;-84
2023/10/25 10:00:15;;;;;;;3.50;3.00;;;;;;;15.16;100.00;99062.22;5114167;28;20044;-84
2023/10/25 10:02:53;;;;;;;6.93;3.78;;;;;;;15.04;100.00;99058.03;5115905;28;20038;-82
2023/10/25 10:05:31;;;;;;;5.18;3.55;;;;;;;14.97;100.00;99058.69;5110380;28;20054;-81
2023/10/25 10:08:45;;;;;;;5.75;2.90;;;;;;;14.91;100.00;99069.56;5114428;28;20031;-83
2023/10/25 10:11:15;;;;;;;7.20;3.65;;;;;;;14.89;100.00;99060.69;5113000;28;20094;-83
2023/10/25 10:13:41;;;;;;;5.93;4.00;;;;;;;14.91;100.00;99069.56;5115187;28;20031;-84
2023/10/25 10:16:15;;;;;;;5.28;3.47;;;;;;;14.96;100.00;99077.28;5113870;28;20043;-83
2023/10/25 10:18:45;;;;;;;6.88;3.90;;;;;;;14.96;100.00;99062.13;5116883;28;20036;-84
2023/10/25 10:21:14;;;;;;;4.22;3.53;;;;;;;14.89;100.00;99043.44;5118809;27;20103;-83
2023/10/25 10:23:53;;;;;;;4.65;3.78;;;;;;;15.01;100.00;99064.91;5118410;28;20059;-85
2023/10/25 10:26:44;;;;;;;4.60;4.13;;;;;;;15.04;100.00;99063.78;5102269;28;20106;-83
2023/10/25 10:29:33;;;;;;;6.18;4.25;;;;;;;15.11;100.00;99073.84;5118502;28;20063;-83
2023/10/25 10:32:09;;;;;;;6.53;3.67;;;;;;;15.19;100.00;99071.84;5117990;28;20124;-83
2023/10/25 10:34:44;;;;;;;6.70;3.83;;;;;;;15.28;100.00;99071.38;5116749;28;20362;-83
2023/10/25 10:37:15;;;;;;;6.55;3.90;;;;;;;15.37;100.00;99068.03;5118071;28;20120;-83
2023/10/25 10:40:10;;;;;;;5.03;3.47;;;;;;;15.41;100.00;99067.72;5117411;28;20036;-82
2023/10/25 10:42:40;;;;;;;7.43;4.22;;;;;;;15.52;100.00;99064.56;5121260;28;20042;-82
2023/10/25 10:45:23;;;;;;;4.82;4.30;;;;;;;15.62;100.00;99057.03;5122966;28;20036;-82
2023/10/25 10:48:32;;;;;;;6.82;4.13;;;;;;;15.74;100.00;99051.81;5118026;28;20049;-83
2023/10/25 10:50:58;;;;;;;7.25;4.20;;;;;;;15.84;100.00;99042.13;5097801;27;20479;-83
2023/10/25 10:53:24;;;;;;;7.07;5.38;;;;;;;15.92;100.00;99042.97;5120733;27;20023;-82
2023/10/25 10:55:50;;;;;;;5.75;4.25;;;;;;;16.00;100.00;99043.84;5138628;27;20023;-83
2023/10/25 10:58:30;;;;;;;4.80;3.83;;;;;;;16.11;100.00;99037.78;5103198;27;20395;-86
2023/10/25 11:00:56;;;;;;;4.17;3.63;;;;;;;16.16;100.00;99035.31;5139646;27;20050;-83
2023/10/25 11:03:25;;;;;;;7.28;3.80;;;;;;;16.23;100.00;99026.75;5121024;27;20391;-83
2023/10/25 11:05:52;;;;;;;7.97;3.67;;;;;;;16.33;100.00;99027.00;5140308;27;20075;-83
2023/10/25 11:08:20;;;;;;;5.03;3.70;;;;;;;16.48;100.00;99030.00;5138790;27;20095;-82
2023/10/25 11:10:47;;;;;;;6.65;3.63;;;;;;;16.65;100.00;99027.47;5138239;27;20035;-83
2023/10/25 11:13:15;;;;;;;4.72;3.65;;;;;;;16.84;100.00;99028.00;5119244;27;20035;-83
2023/10/25 11:15:41;;;;;;;3.97;3.42;;;;;;;16.98;100.00;99026.53;5137916;27;20031;-83
2023/10/25 11:18:08;;;;;;;4.28;3.65;;;;;;;17.12;100.00;99023.50;5121746;27;20042;-84
2023/10/25 11:20:37;;;;;;;6.03;3.50;;;;;;;17.16;100.00;99006.59;5142516;27;20031;-84
2023/10/25 11:23:04;;;;;;;6.15;3.60;;;;;;;17.41;100.00;99031.53;5124366;27;20110;-82
2023/10/25 11:25:30;;;;;;;4.60;3.03;;;;;;;17.46;100.00;99026.94;5142607;27;20042;-83
2023/10/25 11:27:57;;;;;;;7.93;3.10;;;;;;;17.49;100.00;99019.28;5139880;27;20109;-84